Seven Seas Voyager — C6SW3 — position and weather

sailwx.info

Track history (hours):
 
Tides and Currents Weather Stations Pressure Air Temp Water Temp Dewpoint Dewpoint Depression Visibility Wind Speed Wind Dir Waves Ship Positions

Seven Seas Voyager

Last reported at 2019-Sep-20 20:00 UTC. Time now 2019-Sep-21 11:24 UTC.
Position N 36°00' E 015°42'.

Length 205 m; draft 7 m.

Type: Ship. MMSI: 31151000.

Wind from 090 at 15 knots

Barometer 1018.0 mb
Air temperature 25.0 ° C
Visibility: greater than 10.8 NM
Dewpoint 20.7 ° C

Date/timePositionNaut miles runAvg speedWind from/ knotsBaromVisibWave heightAir tempDewpointWater temp
2019-Sep-20 20:00N 36°00' E 015°42'62 2.7 090 / 151018.010.8 25.020.7
2019-Sep-19 21:00N 37°00' E 015°24'1312.9 330 / 101014.010.8 23.020.1
2019-Sep-19 20:00N 37°12' E 015°18'444.0 330 / 101014.010.8 23.020.1
2019-Sep-19 19:54N 37°14' E 015°22'1211.9
2019-Sep-19 18:52N 37°26' E 015°21'23 1.8
2019-Sep-19 06:18N 37°50' E 015°21'414.4
2019-Sep-19 06:00N 37°49' E 015°27'714.8
2019-Sep-19 05:30N 37°49' E 015°36'815.3
2019-Sep-19 05:00N 37°49' E 015°46'815.8
2019-Sep-19 04:30N 37°48' E 015°56'13215.5
2019-Sep-18 20:00N 37°36' E 018°42'1414.3 270 / 151015.010.8 24.021.1
2019-Sep-18 19:00N 37°36' E 019°00'152 6.6 270 / 151015.010.8 24.021.1
2019-Sep-17 20:00N 36°24' E 021°48'1111.4 330 / 151014.010.8 23.020.1
2019-Sep-17 19:00N 36°18' E 022°00'99 4.1 330 / 201014.010.8 24.021.1
2019-Sep-16 19:01N 37°14' E 023°42'011.8
2019-Sep-16 19:00N 37°14' E 023°42'21206.4
2019-Sep-16 19:00N 37°12' E 023°42'815.8 330 / 51015.010.8 23.018.5
2019-Sep-16 18:30N 37°20' E 023°42'511.0
2019-Sep-16 18:00N 37°25' E 023°42'611.3
2019-Sep-16 17:30N 37°31' E 023°42'611.1
2019-Sep-16 17:00N 37°36' E 023°43'510.1
2019-Sep-16 16:30N 37°41' E 023°42'611.0
2019-Sep-16 16:00N 37°46' E 023°39'610.9
2019-Sep-16 15:30N 37°52' E 023°37'5 9.2
2019-Sep-16 15:00N 37°56' E 023°37'0 0.1
2019-Sep-16 14:12N 37°56' E 023°37'0 0.0
2019-Sep-16 14:00N 37°56' E 023°37'0 0.0
2019-Sep-16 13:30N 37°56' E 023°37'0 0.0
2019-Sep-16 12:54N 37°56' E 023°37'0 0.0
2019-Sep-16 12:30N 37°56' E 023°37'0 0.0
2019-Sep-16 12:00N 37°56' E 023°37'0 0.0
2019-Sep-16 11:30N 37°56' E 023°37'0 0.0
2019-Sep-16 11:00N 37°56' E 023°37'0 0.0
2019-Sep-16 10:30N 37°56' E 023°37'0 0.0
2019-Sep-16 10:00N 37°56' E 023°37'0 0.0
2019-Sep-16 09:30N 37°56' E 023°37'0 0.0
2019-Sep-16 09:00N 37°56' E 023°37'0 0.0
2019-Sep-16 08:24N 37°56' E 023°37'0 0.0
2019-Sep-16 08:00N 37°56' E 023°37'0 0.0
2019-Sep-16 07:24N 37°56' E 023°37'0 0.0
2019-Sep-16 07:00N 37°56' E 023°37'0 0.0
2019-Sep-16 06:30N 37°56' E 023°37'0 0.0
2019-Sep-16 05:54N 37°56' E 023°37'0 0.0
2019-Sep-16 05:30N 37°56' E 023°37'0 0.0
2019-Sep-16 05:00N 37°56' E 023°37'0 0.0
2019-Sep-16 04:30N 37°56' E 023°37'0 0.0
2019-Sep-16 04:00N 37°56' E 023°37'0 0.0
2019-Sep-16 03:30N 37°56' E 023°37'0 0.0
2019-Sep-16 03:00N 37°56' E 023°37'0 0.0
2019-Sep-16 02:30N 37°56' E 023°37'0 0.0
2019-Sep-16 01:54N 37°56' E 023°37'1 3.7
2019-Sep-16 01:30N 37°55' E 023°37'815.2
2019-Sep-16 01:00N 37°48' E 023°40'815.6
2019-Sep-16 00:30N 37°41' E 023°45'815.4
2019-Sep-15 23:59N 37°37' E 023°54'4215.7
2019-Sep-15 21:17N 37°41' E 024°48'416.2
2019-Sep-15 21:00N 37°41' E 024°53'1615.3
2019-Sep-15 19:57N 37°43' E 025°13'715.7
2019-Sep-15 19:30N 37°45' E 025°22'815.8
2019-Sep-15 19:01N 37°46' E 025°32'815.7
2019-Sep-15 18:31N 37°48' E 025°41'43 1.9
2019-Sep-14 20:00N 37°06' E 025°54'1312.9 360 / 331012.010.8 22.015.8
2019-Sep-14 19:00N 36°54' E 025°48'115 4.8 340 / 401011.010.8 23.020.1
2019-Sep-13 19:00N 36°48' E 023°24'1912.7 360 / 271018.010.8 25.019.1
2019-Sep-13 17:28N 37°05' E 023°12'612.3
2019-Sep-13 17:00N 37°09' E 023°08'912.6
2019-Sep-13 16:16N 37°17' E 023°01'3 0.3
2019-Sep-13 03:31N 37°15' E 022°57'015.6
2019-Sep-13 03:30N 37°15' E 022°58'815.4
2019-Sep-13 02:58N 37°07' E 023°02'715.0
2019-Sep-13 02:30N 37°01' E 023°05'1615.0
2019-Sep-13 01:28N 36°46' E 023°10'6311.5
2019-Sep-12 20:00N 36°18' E 022°00'1514.5 340 / 251021.010.8 23.021.6
2019-Sep-12 19:00N 36°18' E 021°42'29113.2 340 / 251021.010.8 23.021.6
2019-Sep-11 21:00N 36°00' E 015°42'10 9.7 050 / 201018.010.8 23.020.1
2019-Sep-11 20:00N 36°00' E 015°30'54 2.4 050 / 201017.010.8 24.021.1
2019-Sep-10 21:00N 36°54' E 015°24'6105.8 020 / 221013.010.8 22.017.5
2019-Sep-10 20:56N 37°00' E 015°25'510.2
2019-Sep-10 20:26N 37°05' E 015°23'4 9.7
2019-Sep-10 20:00N 37°06' E 015°18'   020 / 221013.010.8 22.017.5
Track history (hours):
 
Tides and Currents Weather Stations Pressure Air Temp Water Temp Dewpoint Dewpoint Depression Visibility Wind Speed Wind Dir Waves Ship Positions

Seven Seas Voyager

Last reported at 2019-Sep-20 20:00 UTC. Time now 2019-Sep-21 11:24 UTC.
Position N 36°00' E 015°42'.

Length 205 m; draft 7 m.

Type: Ship. MMSI: 31151000.

Wind from 090 at 15 knots

Barometer 1018.0 mb
Air temperature 25.0 ° C
Visibility: greater than 10.8 NM
Dewpoint 20.7 ° C

Date/timePositionNaut miles runAvg speedWind from/ knotsBaromVisibWave heightAir tempDewpointWater temp
2019-Sep-20 20:00N 36°00' E 015°42'62 2.7 090 / 151018.010.8 25.020.7
2019-Sep-19 21:00N 37°00' E 015°24'1312.9 330 / 101014.010.8 23.020.1
2019-Sep-19 20:00N 37°12' E 015°18'444.0 330 / 101014.010.8 23.020.1
2019-Sep-19 19:54N 37°14' E 015°22'1211.9
2019-Sep-19 18:52N 37°26' E 015°21'23 1.8
2019-Sep-19 06:18N 37°50' E 015°21'414.4
2019-Sep-19 06:00N 37°49' E 015°27'714.8
2019-Sep-19 05:30N 37°49' E 015°36'815.3
2019-Sep-19 05:00N 37°49' E 015°46'815.8
2019-Sep-19 04:30N 37°48' E 015°56'13215.5
2019-Sep-18 20:00N 37°36' E 018°42'1414.3 270 / 151015.010.8 24.021.1
2019-Sep-18 19:00N 37°36' E 019°00'152 6.6 270 / 151015.010.8 24.021.1
2019-Sep-17 20:00N 36°24' E 021°48'1111.4 330 / 151014.010.8 23.020.1
2019-Sep-17 19:00N 36°18' E 022°00'99 4.1 330 / 201014.010.8 24.021.1
2019-Sep-16 19:01N 37°14' E 023°42'011.8
2019-Sep-16 19:00N 37°14' E 023°42'21206.4
2019-Sep-16 19:00N 37°12' E 023°42'815.8 330 / 51015.010.8 23.018.5
2019-Sep-16 18:30N 37°20' E 023°42'511.0
2019-Sep-16 18:00N 37°25' E 023°42'611.3
2019-Sep-16 17:30N 37°31' E 023°42'611.1
2019-Sep-16 17:00N 37°36' E 023°43'510.1
2019-Sep-16 16:30N 37°41' E 023°42'611.0
2019-Sep-16 16:00N 37°46' E 023°39'610.9
2019-Sep-16 15:30N 37°52' E 023°37'5 9.2
2019-Sep-16 15:00N 37°56' E 023°37'0 0.1
2019-Sep-16 14:12N 37°56' E 023°37'0 0.0
2019-Sep-16 14:00N 37°56' E 023°37'0 0.0
2019-Sep-16 13:30N 37°56' E 023°37'0 0.0
2019-Sep-16 12:54N 37°56' E 023°37'0 0.0
2019-Sep-16 12:30N 37°56' E 023°37'0 0.0
2019-Sep-16 12:00N 37°56' E 023°37'0 0.0
2019-Sep-16 11:30N 37°56' E 023°37'0 0.0
2019-Sep-16 11:00N 37°56' E 023°37'0 0.0
2019-Sep-16 10:30N 37°56' E 023°37'0 0.0
2019-Sep-16 10:00N 37°56' E 023°37'0 0.0
2019-Sep-16 09:30N 37°56' E 023°37'0 0.0
2019-Sep-16 09:00N 37°56' E 023°37'0 0.0
2019-Sep-16 08:24N 37°56' E 023°37'0 0.0
2019-Sep-16 08:00N 37°56' E 023°37'0 0.0
2019-Sep-16 07:24N 37°56' E 023°37'0 0.0
2019-Sep-16 07:00N 37°56' E 023°37'0 0.0
2019-Sep-16 06:30N 37°56' E 023°37'0 0.0
2019-Sep-16 05:54N 37°56' E 023°37'0 0.0
2019-Sep-16 05:30N 37°56' E 023°37'0 0.0
2019-Sep-16 05:00N 37°56' E 023°37'0 0.0
2019-Sep-16 04:30N 37°56' E 023°37'0 0.0
2019-Sep-16 04:00N 37°56' E 023°37'0 0.0
2019-Sep-16 03:30N 37°56' E 023°37'0 0.0
2019-Sep-16 03:00N 37°56' E 023°37'0 0.0
2019-Sep-16 02:30N 37°56' E 023°37'0 0.0
2019-Sep-16 01:54N 37°56' E 023°37'1 3.7
2019-Sep-16 01:30N 37°55' E 023°37'815.2
2019-Sep-16 01:00N 37°48' E 023°40'815.6
2019-Sep-16 00:30N 37°41' E 023°45'815.4
2019-Sep-15 23:59N 37°37' E 023°54'4215.7
2019-Sep-15 21:17N 37°41' E 024°48'416.2
2019-Sep-15 21:00N 37°41' E 024°53'1615.3
2019-Sep-15 19:57N 37°43' E 025°13'715.7
2019-Sep-15 19:30N 37°45' E 025°22'815.8
2019-Sep-15 19:01N 37°46' E 025°32'815.7
2019-Sep-15 18:31N 37°48' E 025°41'43 1.9
2019-Sep-14 20:00N 37°06' E 025°54'1312.9 360 / 331012.010.8 22.015.8
2019-Sep-14 19:00N 36°54' E 025°48'115 4.8 340 / 401011.010.8 23.020.1
2019-Sep-13 19:00N 36°48' E 023°24'1912.7 360 / 271018.010.8 25.019.1
2019-Sep-13 17:28N 37°05' E 023°12'612.3
2019-Sep-13 17:00N 37°09' E 023°08'912.6
2019-Sep-13 16:16N 37°17' E 023°01'3 0.3
2019-Sep-13 03:31N 37°15' E 022°57'015.6
2019-Sep-13 03:30N 37°15' E 022°58'815.4
2019-Sep-13 02:58N 37°07' E 023°02'715.0
2019-Sep-13 02:30N 37°01' E 023°05'1615.0
2019-Sep-13 01:28N 36°46' E 023°10'6311.5
2019-Sep-12 20:00N 36°18' E 022°00'1514.5 340 / 251021.010.8 23.021.6
2019-Sep-12 19:00N 36°18' E 021°42'29113.2 340 / 251021.010.8 23.021.6
2019-Sep-11 21:00N 36°00' E 015°42'10 9.7 050 / 201018.010.8 23.020.1
2019-Sep-11 20:00N 36°00' E 015°30'54 2.4 050 / 201017.010.8 24.021.1
2019-Sep-10 21:00N 36°54' E 015°24'6105.8 020 / 221013.010.8 22.017.5
2019-Sep-10 20:56N 37°00' E 015°25'510.2
2019-Sep-10 20:26N 37°05' E 015°23'4 9.7
2019-Sep-10 20:00N 37°06' E 015°18'   020 / 221013.010.8 22.017.5

Dump ship's entire track history